Time,TemperatureF,DewpointF,PressureIn,WindDirection,WindDirectionDegrees,WindSpeedMPH,WindSpeedGustMPH,Humidity,HourlyPrecipIn,Conditions,Clouds,dailyrainin,SoftwareType,DateUTC
2013-06-23 00:00:00,72.4,69.0,29.70,East,88,9.0,14.7,89,0.00,,CLR,0.38,VWS V14.01,2013-06-23 05:00:00,
2013-06-23 00:10:00,72.1,69.0,29.67,East,88,7.0,15.7,90,0.01,,SCT120,0.01,VWS V14.01,2013-06-23 05:10:00,
2013-06-23 00:15:00,71.9,69.1,29.67,East,84,11.0,12.6,91,0.01,,SCT120,0.01,VWS V14.01,2013-06-23 05:15:00,
2013-06-23 00:20:00,71.9,69.1,29.67,ENE,68,11.0,16.8,91,0.01,,SCT120,0.01,VWS V14.01,2013-06-23 05:20:00,
2013-06-23 00:25:00,71.9,69.1,29.67,East,82,3.0,14.7,91,0.01,,SCT120,0.01,VWS V14.01,2013-06-23 05:25:00,
2013-06-23 00:30:00,71.9,69.1,29.68,ESE,106,8.0,12.6,91,0.01,,SCT120,0.01,VWS V14.01,2013-06-23 05:30:00,
2013-06-23 00:35:00,71.9,69.1,29.68,East,97,11.0,12.6,91,0.01,,SCT120,0.01,VWS V14.01,2013-06-23 05:35:00,
2013-06-23 00:40:00,72.1,69.3,29.68,ESE,111,11.0,15.7,91,0.01,,SCT120,0.01,VWS V14.01,2013-06-23 05:40:00,
2013-06-23 00:45:00,72.0,69.2,29.69,ESE,109,9.0,13.6,91,0.01,,CLR,0.01,VWS V14.01,2013-06-23 05:45:00,
2013-06-23 00:50:00,72.0,69.2,29.70,ESE,123,10.0,14.7,91,0.01,,CLR,0.01,VWS V14.01,2013-06-23 05:50:00,
2013-06-23 01:00:00,72.1,69.7,29.69,SE,131,8.0,16.8,92,0.01,,CLR,0.01,VWS V14.01,2013-06-23 06:00:00,
2013-06-23 01:05:00,72.1,69.7,29.68,ESE,104,10.0,17.8,92,0.01,,,0.01,VWS V14.01,2013-06-23 06:05:00,
2013-06-23 01:10:00,72.0,69.6,29.68,ESE,108,9.0,15.7,92,0.01,,,0.01,VWS V14.01,2013-06-23 06:10:00,
2013-06-23 01:15:00,71.9,69.4,29.68,ESE,111,7.0,13.6,92,0.00,,,0.01,VWS V14.01,2013-06-23 06:15:00,
2013-06-23 01:20:00,71.9,69.8,29.69,ESE,120,15.0,19.9,93,0.01,,,0.02,VWS V14.01,2013-06-23 06:20:00,
2013-06-23 01:30:00,71.9,69.8,29.69,ESE,117,9.0,15.7,93,0.02,,OVC110,0.03,VWS V14.01,2013-06-23 06:30:00,
2013-06-23 01:35:00,71.9,69.8,29.70,South,173,6.0,15.7,93,0.02,,OVC110,0.03,VWS V14.01,2013-06-23 06:35:00,
2013-06-23 01:45:00,71.8,70.0,29.68,East,93,9.0,16.8,94,0.03,,,0.04,VWS V14.01,2013-06-23 06:45:00,
2013-06-23 01:50:00,71.7,69.9,29.67,East,96,17.0,19.9,94,0.03,,,0.04,VWS V14.01,2013-06-23 06:50:00,
2013-06-23 01:55:00,71.7,69.9,29.66,East,94,15.0,21.0,94,0.03,,,0.04,VWS V14.01,2013-06-23 06:55:00,
2013-06-23 02:00:00,71.5,69.7,29.65,East,99,19.0,22.0,94,0.04,,,0.05,VWS V14.01,2013-06-23 07:00:00,
2013-06-23 02:05:00,71.5,69.7,29.64,ESE,105,14.0,19.9,94,0.04,,,0.05,VWS V14.01,2013-06-23 07:05:00,
2013-06-23 02:15:00,71.4,69.6,29.66,SE,133,13.0,17.8,94,0.04,,,0.05,VWS V14.01,2013-06-23 07:15:00,
2013-06-23 02:20:00,71.0,69.2,29.65,ESE,104,10.0,14.7,94,0.04,,,0.05,VWS V14.01,2013-06-23 07:20:00,
2013-06-23 02:25:00,70.7,68.9,29.67,SSE,165,10.0,21.0,94,0.04,,,0.06,VWS V14.01,2013-06-23 07:25:00,
2013-06-23 02:35:00,70.0,67.6,29.67,SSW,198,4.0,11.5,92,0.03,,,0.06,VWS V14.01,2013-06-23 07:35:00,
2013-06-23 02:40:00,69.5,67.4,29.67,SW,227,6.0,10.5,93,0.03,,,0.06,VWS V14.01,2013-06-23 07:40:00,
2013-06-23 02:45:00,69.1,67.0,29.67,SW,232,2.0,12.6,93,0.04,,,0.08,VWS V14.01,2013-06-23 07:45:00,
2013-06-23 02:50:00,68.8,67.0,29.69,SSW,205,12.0,13.6,94,0.08,,,0.12,VWS V14.01,2013-06-23 07:50:00,
2013-06-23 03:00:00,67.9,66.1,29.65,ESE,115,8.0,13.6,94,0.27,,,0.31,VWS V14.01,2013-06-23 08:00:00,
2013-06-23 03:10:00,67.6,65.8,29.63,West,273,4.0,4.2,94,0.28,,,0.33,VWS V14.01,2013-06-23 08:10:00,
2013-06-23 03:15:00,67.4,65.6,29.65,SW,233,6.0,13.6,94,0.28,,,0.33,VWS V14.01,2013-06-23 08:15:00,
2013-06-23 03:25:00,67.1,65.6,29.61,East,96,9.0,11.5,95,0.28,,OVC070,0.33,VWS V14.01,2013-06-23 08:25:00,
2013-06-23 03:35:00,69.0,66.9,29.62,East,97,9.0,11.5,93,0.29,,OVC070,0.35,VWS V14.01,2013-06-23 08:35:00,
2013-06-23 03:40:00,69.0,66.9,29.59,ENE,61,9.0,13.6,93,0.29,,OVC070,0.35,VWS V14.01,2013-06-23 08:40:00,
2013-06-23 03:45:00,69.0,66.9,29.61,East,98,2.0,11.5,93,0.29,,OVC060,0.35,VWS V14.01,2013-06-23 08:45:00,
2013-06-23 03:50:00,68.9,66.8,29.61,ESE,103,2.0,6.3,93,0.43,,OVC060,0.51,VWS V14.01,2013-06-23 08:50:00,
2013-06-23 03:55:00,68.5,66.4,29.62,WSW,246,2.0,4.2,93,0.44,,OVC060,0.56,VWS V14.01,2013-06-23 08:55:00,
2013-06-23 04:05:00,67.0,65.2,29.62,WNW,296,1.0,5.2,94,0.56,,,0.87,VWS V14.01,2013-06-23 09:05:00,
2013-06-23 04:15:00,65.8,64.3,29.62,SW,227,0.0,9.4,95,0.64,,,0.97,VWS V14.01,2013-06-23 09:15:00,
2013-06-23 04:20:00,65.5,64.0,29.62,SSW,199,1.0,8.4,95,0.70,,,1.03,VWS V14.01,2013-06-23 09:20:00,
2013-06-23 04:25:00,65.3,63.8,29.64,SE,144,0.0,8.4,95,0.74,,,1.07,VWS V14.01,2013-06-23 09:25:00,
2013-06-23 04:35:00,65.2,63.7,29.69,WNW,288,0.0,5.2,95,0.88,,,1.22,VWS V14.01,2013-06-23 09:35:00,
2013-06-23 04:45:00,65.0,63.8,29.66,NNW,340,1.0,6.3,96,1.00,,OVC065,1.35,VWS V14.01,2013-06-23 09:45:00,
2013-06-23 04:50:00,65.1,63.9,29.64,North,360,0.0,8.4,96,1.00,,OVC065,1.35,VWS V14.01,2013-06-23 09:50:00,
2013-06-23 04:55:00,65.1,63.9,29.61,North,5,9.0,16.8,96,0.84,,OVC065,1.35,VWS V14.01,2013-06-23 09:55:00,
2013-06-23 05:00:00,65.2,64.0,29.58,NNE,32,13.0,18.9,96,0.80,,OVC065,1.36,VWS V14.01,2013-06-23 10:00:00,
2013-06-23 05:05:00,65.2,64.0,29.55,North,360,14.0,22.0,96,0.73,,OVC110,1.36,VWS V14.01,2013-06-23 10:05:00,
2013-06-23 05:10:00,65.3,64.1,29.55,NE,51,12.0,23.1,96,0.49,,OVC110,1.36,VWS V14.01,2013-06-23 10:10:00,
2013-06-23 05:20:00,65.5,64.0,29.52,NE,45,13.0,21.0,95,0.39,,OVC110,1.36,VWS V14.01,2013-06-23 10:20:00,
2013-06-23 05:30:00,65.8,64.3,29.49,NE,40,13.0,18.9,95,0.30,,SCT110,1.37,VWS V14.01,2013-06-23 10:30:00,
2013-06-23 05:35:00,65.9,64.4,29.50,NNE,32,8.0,14.7,95,0.26,,SCT110,1.37,VWS V14.01,2013-06-23 10:35:00,
2013-06-23 05:40:00,66.1,64.3,29.55,SSE,153,8.0,9.4,94,0.15,,SCT110,1.37,VWS V14.01,2013-06-23 10:40:00,
2013-06-23 05:45:00,66.3,64.5,29.59,SE,124,5.0,8.4,94,0.03,,CLR,1.37,VWS V14.01,2013-06-23 10:45:00,
2013-06-23 05:50:00,66.4,64.3,29.58,SE,132,9.0,10.5,93,0.02,,CLR,1.37,VWS V14.01,2013-06-23 10:50:00,
2013-06-23 06:00:00,66.4,64.6,29.61,SE,132,11.0,13.6,94,0.02,,CLR,1.37,VWS V14.01,2013-06-23 11:00:00,
2013-06-23 06:05:00,66.3,64.5,29.61,SSE,167,3.0,13.6,94,0.01,,CLR,1.37,VWS V14.01,2013-06-23 11:05:00,
2013-06-23 06:10:00,66.3,64.5,29.62,South,182,2.0,8.4,94,0.01,,CLR,1.37,VWS V14.01,2013-06-23 11:10:00,
2013-06-23 06:15:00,66.2,64.4,29.63,SW,215,1.0,7.3,94,0.01,,CLR,1.37,VWS V14.01,2013-06-23 11:15:00,
2013-06-23 06:25:00,66.1,64.6,29.61,SSW,200,0.0,3.1,95,0.01,,SCT011,1.37,VWS V14.01,2013-06-23 11:25:00,
2013-06-23 06:35:00,66.1,64.6,29.62,WSW,237,0.0,3.1,95,0.00,,SCT011,1.37,VWS V14.01,2013-06-23 11:35:00,
2013-06-23 06:40:00,66.1,64.6,29.61,WSW,237,0.0,1.0,95,0.00,,SCT011,1.37,VWS V14.01,2013-06-23 11:40:00,
2013-06-23 06:45:00,66.1,64.6,29.60,WSW,237,0.0,2.1,95,0.00,,BKN011,1.37,VWS V14.01,2013-06-23 11:45:00,
2013-06-23 06:50:00,66.1,64.6,29.61,West,270,4.0,4.2,95,0.00,,BKN011,1.37,VWS V14.01,2013-06-23 11:50:00,
2013-06-23 06:55:00,66.1,64.6,29.62,West,264,0.0,4.2,95,0.00,,BKN011,1.37,VWS V14.01,2013-06-23 11:55:00,
2013-06-23 07:00:00,66.2,64.7,29.62,West,276,0.0,4.2,95,0.00,,BKN011,1.37,VWS V14.01,2013-06-23 12:00:00,
2013-06-23 07:10:00,66.2,64.7,29.62,WNW,282,3.0,4.2,95,0.00,,BKN011,1.37,VWS V14.01,2013-06-23 12:10:00,
2013-06-23 07:15:00,66.1,64.6,29.63,West,269,3.0,7.3,95,0.00,,BKN011,1.37,VWS V14.01,2013-06-23 12:15:00,
2013-06-23 07:20:00,66.0,64.5,29.64,West,262,4.0,8.4,95,0.00,,BKN011,1.37,VWS V14.01,2013-06-23 12:20:00,
2013-06-23 07:30:00,65.8,64.3,29.64,SW,226,3.0,9.4,95,0.00,,BKN011,1.37,VWS V14.01,2013-06-23 12:30:00,
2013-06-23 07:35:00,65.8,64.3,29.64,West,265,6.0,6.3,95,0.00,,BKN011,1.37,VWS V14.01,2013-06-23 12:35:00,
2013-06-23 07:40:00,65.8,64.6,29.64,WNW,298,4.0,7.3,96,0.00,,BKN011,1.37,VWS V14.01,2013-06-23 12:40:00,
2013-06-23 07:45:00,65.8,64.6,29.64,West,268,4.0,5.2,96,0.00,,SCT011,1.37,VWS V14.01,2013-06-23 12:45:00,
2013-06-23 07:50:00,65.8,64.3,29.63,West,268,2.0,10.5,95,0.00,,SCT011,1.37,VWS V14.01,2013-06-23 12:50:00,
2013-06-23 08:00:00,65.9,64.4,29.62,SSW,210,2.0,7.3,95,0.00,,SCT011,1.37,VWS V14.01,2013-06-23 13:00:00,
2013-06-23 08:05:00,65.9,64.4,29.62,SW,214,1.0,3.1,95,0.00,,CLR,1.37,VWS V14.01,2013-06-23 13:05:00,
2013-06-23 08:10:00,66.0,64.5,29.62,SW,234,5.0,6.3,95,0.00,,CLR,1.37,VWS V14.01,2013-06-23 13:10:00,
2013-06-23 08:20:00,66.2,65.0,29.63,SW,230,11.0,12.6,96,0.00,,CLR,1.37,VWS V14.01,2013-06-23 13:20:00,
2013-06-23 08:25:00,66.4,65.2,29.63,SW,225,5.0,12.6,96,0.00,,CLR,1.37,VWS V14.01,2013-06-23 13:25:00,
2013-06-23 08:30:00,66.5,65.3,29.64,SSW,192,7.0,13.6,96,0.00,,CLR,1.37,VWS V14.01,2013-06-23 13:30:00,
2013-06-23 08:40:00,66.6,65.1,29.65,WNW,297,9.0,18.9,95,0.00,,CLR,1.37,VWS V14.01,2013-06-23 13:40:00,
2013-06-23 08:50:00,66.7,65.2,29.66,SW,231,7.0,15.7,95,0.00,,SCT005,1.37,VWS V14.01,2013-06-23 13:50:00,
2013-06-23 08:55:00,66.8,65.3,29.66,SW,236,13.0,21.0,95,0.00,,SCT005,1.37,VWS V14.01,2013-06-23 13:55:00,
2013-06-23 09:00:00,67.0,65.5,29.66,SW,236,18.0,19.9,95,0.00,,SCT005,1.37,VWS V14.01,2013-06-23 14:00:00,
2013-06-23 09:10:00,67.1,65.3,29.67,West,262,12.0,21.0,94,0.00,,SCT007,1.37,VWS V14.01,2013-06-23 14:10:00,
2013-06-23 09:15:00,67.1,65.3,29.67,SW,235,9.0,19.9,94,0.00,,SCT007,1.37,VWS V14.01,2013-06-23 14:15:00,
2013-06-23 09:20:00,67.3,65.5,29.66,SW,232,13.0,17.8,94,0.00,,SCT007,1.37,VWS V14.01,2013-06-23 14:20:00,
2013-06-23 09:30:00,68.1,65.7,29.66,SW,217,4.0,16.8,92,0.00,,CLR,1.37,VWS V14.01,2013-06-23 14:30:00,
2013-06-23 09:35:00,68.7,66.0,29.66,SW,225,20.0,21.0,91,0.00,,CLR,1.37,VWS V14.01,2013-06-23 14:35:00,
2013-06-23 09:40:00,69.0,65.6,29.65,West,261,8.0,21.0,89,0.00,,CLR,1.37,VWS V14.01,2013-06-23 14:40:00,
2013-06-23 09:50:00,69.6,66.2,29.64,WSW,254,10.0,13.6,89,0.00,,CLR,1.37,VWS V14.01,2013-06-23 14:50:00,
2013-06-23 09:55:00,69.9,66.5,29.65,SW,231,5.0,15.7,89,0.00,,CLR,1.37,VWS V14.01,2013-06-23 14:55:00,
2013-06-23 10:05:00,70.4,66.3,29.65,WNW,282,11.0,15.7,87,0.00,,CLR,1.37,VWS V14.01,2013-06-23 15:05:00,
2013-06-23 10:10:00,70.7,66.7,29.66,WSW,247,9.0,15.7,87,0.00,,CLR,1.37,VWS V14.01,2013-06-23 15:10:00,
2013-06-23 10:15:00,71.1,67.4,29.66,WSW,242,14.0,15.7,88,0.00,,CLR,1.37,VWS V14.01,2013-06-23 15:15:00,
2013-06-23 10:20:00,71.1,67.0,29.66,West,265,7.0,17.8,87,0.00,,CLR,1.37,VWS V14.01,2013-06-23 15:20:00,
2013-06-23 10:35:00,71.6,67.5,29.67,WSW,250,5.0,17.8,87,0.00,,SCT016,1.37,VWS V14.01,2013-06-23 15:35:00,
2013-06-23 10:40:00,71.6,67.2,29.67,WSW,250,10.0,17.8,86,0.00,,SCT016,1.37,VWS V14.01,2013-06-23 15:40:00,
2013-06-23 10:45:00,71.7,67.3,29.67,WNW,282,11.0,15.7,86,0.00,,SCT016,1.37,VWS V14.01,2013-06-23 15:45:00,
2013-06-23 10:55:00,72.1,67.0,29.68,West,260,7.0,19.9,84,0.00,,SCT016,1.37,VWS V14.01,2013-06-23 15:55:00,
2013-06-23 11:00:00,72.5,68.1,29.68,SW,234,12.0,15.7,86,0.00,,SCT016,1.37,VWS V14.01,2013-06-23 16:00:00,
2013-06-23 11:10:00,72.4,67.3,29.68,SW,223,13.0,18.9,84,0.00,,CLR,1.37,VWS V14.01,2013-06-23 16:10:00,
2013-06-23 11:15:00,72.4,68.0,29.68,SSW,203,10.0,17.8,86,0.00,,CLR,1.37,VWS V14.01,2013-06-23 16:15:00,
2013-06-23 11:20:00,72.7,67.9,29.68,SW,232,18.0,23.1,85,0.00,,CLR,1.37,VWS V14.01,2013-06-23 16:20:00,
2013-06-23 11:25:00,72.7,67.6,29.69,SW,226,7.0,21.0,84,0.00,,CLR,1.37,VWS V14.01,2013-06-23 16:25:00,
2013-06-23 11:35:00,73.0,66.1,29.69,SW,223,14.0,21.0,79,0.00,,CLR,1.37,VWS V14.01,2013-06-23 16:35:00,
2013-06-23 11:45:00,73.5,68.0,29.69,WSW,240,5.0,16.8,83,0.00,,CLR,1.37,VWS V14.01,2013-06-23 16:45:00,
2013-06-23 11:50:00,73.6,67.8,29.69,WSW,243,6.0,19.9,82,0.00,,CLR,1.37,VWS V14.01,2013-06-23 16:50:00,
2013-06-23 12:05:00,73.9,68.1,29.69,SW,221,9.0,16.8,82,0.00,,CLR,1.37,VWS V14.01,2013-06-23 17:05:00,
2013-06-23 12:10:00,74.1,68.3,29.69,SW,225,16.0,18.9,82,0.00,,CLR,1.37,VWS V14.01,2013-06-23 17:10:00,
2013-06-23 12:15:00,74.0,67.4,29.70,SW,219,12.0,17.8,80,0.00,,CLR,1.37,VWS V14.01,2013-06-23 17:15:00,
2013-06-23 12:20:00,73.9,67.7,29.70,SW,225,14.0,19.9,81,0.00,,CLR,1.37,VWS V14.01,2013-06-23 17:20:00,
2013-06-23 12:25:00,74.0,67.4,29.70,SW,225,15.0,17.8,80,0.00,,CLR,1.37,VWS V14.01,2013-06-23 17:25:00,
2013-06-23 12:30:00,74.4,67.5,29.70,SW,227,15.0,18.9,79,0.00,,CLR,1.37,VWS V14.01,2013-06-23 17:30:00,
2013-06-23 12:40:00,74.6,67.3,29.70,SW,224,8.0,18.9,78,0.00,,CLR,1.37,VWS V14.01,2013-06-23 17:40:00,
2013-06-23 12:45:00,74.7,67.4,29.70,SSW,205,11.0,21.0,78,0.00,,SCT024,1.37,VWS V14.01,2013-06-23 17:45:00,
2013-06-23 12:50:00,75.1,67.0,29.70,SW,229,14.0,14.7,76,0.00,,SCT024,1.37,VWS V14.01,2013-06-23 17:50:00,
2013-06-23 12:55:00,75.2,67.5,29.71,SW,224,10.0,23.1,77,0.00,,SCT024,1.37,VWS V14.01,2013-06-23 17:55:00,
2013-06-23 13:00:00,74.9,66.8,29.71,SSW,193,8.0,19.9,76,0.00,,SCT024,1.37,VWS V14.01,2013-06-23 18:00:00,
2013-06-23 13:05:00,75.1,67.4,29.71,SSW,210,9.0,18.9,77,0.00,,SCT026,1.37,VWS V14.01,2013-06-23 18:05:00,
2013-06-23 13:10:00,75.4,67.3,29.71,SW,230,8.0,17.8,76,0.00,,SCT026,1.37,VWS V14.01,2013-06-23 18:10:00,
2013-06-23 13:15:00,75.4,66.9,29.72,SW,221,11.0,21.0,75,0.00,,SCT026,1.37,VWS V14.01,2013-06-23 18:15:00,
2013-06-23 13:20:00,75.3,67.6,29.72,SW,236,15.0,17.8,77,0.00,,SCT026,1.37,VWS V14.01,2013-06-23 18:20:00,
2013-06-23 13:25:00,75.3,67.6,29.73,SW,217,11.0,25.2,77,0.00,,SCT033,1.37,VWS V14.01,2013-06-23 18:25:00,
2013-06-23 13:30:00,75.2,67.5,29.72,SW,227,6.0,16.8,77,0.00,,SCT033,1.37,VWS V14.01,2013-06-23 18:30:00,
2013-06-23 13:35:00,75.7,68.4,29.72,SW,214,13.0,19.9,78,0.00,,SCT033,1.37,VWS V14.01,2013-06-23 18:35:00,
2013-06-23 13:45:00,76.1,68.0,29.72,SW,223,11.0,15.7,76,0.00,,BKN030,1.37,VWS V14.01,2013-06-23 18:45:00,
2013-06-23 13:50:00,76.4,68.7,29.73,WNW,284,14.0,16.8,77,0.00,,BKN030,1.37,VWS V14.01,2013-06-23 18:50:00,
2013-06-23 13:55:00,76.4,68.3,29.73,SW,221,8.0,18.9,76,0.00,,BKN030,1.37,VWS V14.01,2013-06-23 18:55:00,
2013-06-23 14:00:00,76.6,67.3,29.72,WSW,239,11.0,18.9,73,0.00,,BKN030,1.37,VWS V14.01,2013-06-23 19:00:00,
2013-06-23 14:10:00,76.9,67.6,29.72,SW,227,14.0,16.8,73,0.00,,SCT038,1.37,VWS V14.01,2013-06-23 19:10:00,
2013-06-23 14:15:00,76.2,67.3,29.72,SW,232,11.0,16.8,74,0.00,,SCT038,1.37,VWS V14.01,2013-06-23 19:15:00,
2013-06-23 14:20:00,76.5,68.4,29.72,SW,228,8.0,13.6,76,0.00,,SCT038,1.37,VWS V14.01,2013-06-23 19:20:00,
2013-06-23 14:25:00,76.9,68.0,29.72,West,259,3.0,21.0,74,0.00,,SCT030,1.37,VWS V14.01,2013-06-23 19:25:00,
2013-06-23 14:30:00,77.3,67.6,29.72,SW,221,18.0,18.9,72,0.00,,SCT030,1.37,VWS V14.01,2013-06-23 19:30:00,
2013-06-23 14:35:00,77.3,68.8,29.72,WNW,300,5.0,18.9,75,0.00,,SCT030,1.37,VWS V14.01,2013-06-23 19:35:00,
2013-06-23 14:45:00,77.8,68.1,29.72,SW,229,5.0,17.8,72,0.00,,SCT030,1.37,VWS V14.01,2013-06-23 19:45:00,
2013-06-23 14:55:00,77.7,68.0,29.72,SSW,203,7.0,16.8,72,0.00,,SCT030,1.37,VWS V14.01,2013-06-23 19:55:00,
2013-06-23 15:00:00,77.9,68.9,29.72,WSW,244,5.0,14.7,74,0.00,,SCT030,1.37,VWS V14.01,2013-06-23 20:00:00,
2013-06-23 15:05:00,77.8,68.1,29.72,West,275,6.0,13.6,72,0.00,,SCT032,1.37,VWS V14.01,2013-06-23 20:05:00,
2013-06-23 15:10:00,77.3,67.6,29.72,SW,221,8.0,16.8,72,0.00,,SCT032,1.37,VWS V14.01,2013-06-23 20:10:00,
2013-06-23 15:15:00,77.2,67.5,29.72,SW,232,11.0,14.7,72,0.00,,SCT032,1.37,VWS V14.01,2013-06-23 20:15:00,
2013-06-23 15:20:00,77.2,66.7,29.72,SW,227,4.0,14.7,70,0.00,,SCT032,1.37,VWS V14.01,2013-06-23 20:20:00,
2013-06-23 15:25:00,77.3,67.6,29.73,West,273,4.0,14.7,72,0.00,,SCT032,1.37,VWS V14.01,2013-06-23 20:25:00,
2013-06-23 15:35:00,78.3,68.1,29.73,West,265,12.0,16.8,71,0.00,,SCT032,1.37,VWS V14.01,2013-06-23 20:35:00,
2013-06-23 15:45:00,78.1,68.3,29.73,WNW,292,7.0,18.9,72,0.00,,SCT034,1.37,VWS V14.01,2013-06-23 20:45:00,
2013-06-23 15:55:00,78.4,67.8,29.73,SW,219,6.0,17.8,70,0.00,,SCT034,1.37,VWS V14.01,2013-06-23 20:55:00,
2013-06-23 16:05:00,78.5,68.7,29.73,WSW,240,6.0,13.6,72,0.00,,SCT034,1.37,VWS V14.01,2013-06-23 21:05:00,
2013-06-23 16:10:00,79.0,68.8,29.73,SW,229,7.0,13.6,71,0.00,,SCT034,1.37,VWS V14.01,2013-06-23 21:10:00,
2013-06-23 16:20:00,78.9,67.9,29.72,West,279,7.0,17.8,69,0.00,,SCT034,1.37,VWS V14.01,2013-06-23 21:20:00,
2013-06-23 16:25:00,78.7,67.7,29.72,SW,223,11.0,15.7,69,0.00,,CLR,1.37,VWS V14.01,2013-06-23 21:25:00,
2013-06-23 16:30:00,78.9,68.3,29.72,WNW,284,8.0,12.6,70,0.00,,CLR,1.37,VWS V14.01,2013-06-23 21:30:00,
2013-06-23 16:35:00,79.4,67.1,29.72,West,267,13.0,14.7,66,0.00,,CLR,1.37,VWS V14.01,2013-06-23 21:35:00,
2013-06-23 16:45:00,79.6,65.0,29.72,SW,229,8.0,12.6,61,0.00,,CLR,1.37,VWS V14.01,2013-06-23 21:45:00,
2013-06-23 16:50:00,79.7,66.5,29.73,West,267,3.0,13.6,64,0.00,,CLR,1.37,VWS V14.01,2013-06-23 21:50:00,
2013-06-23 17:00:00,79.9,66.7,29.73,SW,227,10.0,11.5,64,0.00,,CLR,1.37,VWS V14.01,2013-06-23 22:00:00,
2013-06-23 17:10:00,79.8,66.1,29.73,West,273,1.0,14.7,63,0.00,,CLR,1.37,VWS V14.01,2013-06-23 22:10:00,
2013-06-23 17:15:00,79.9,65.7,29.73,NW,306,8.0,12.6,62,0.00,,CLR,1.37,VWS V14.01,2013-06-23 22:15:00,
2013-06-23 17:20:00,79.9,66.7,29.73,West,262,7.0,10.5,64,0.00,,CLR,1.37,VWS V14.01,2013-06-23 22:20:00,
2013-06-23 17:25:00,80.0,65.4,29.73,SW,228,6.0,11.5,61,0.00,,CLR,1.37,VWS V14.01,2013-06-23 22:25:00,
2013-06-23 17:30:00,80.1,65.4,29.73,WNW,301,5.0,18.9,61,0.00,,CLR,1.37,VWS V14.01,2013-06-23 22:30:00,
2013-06-23 17:40:00,80.0,64.9,29.74,West,269,2.0,11.5,60,0.00,,CLR,1.37,VWS V14.01,2013-06-23 22:40:00,
2013-06-23 17:45:00,80.2,64.1,29.73,SW,221,5.0,9.4,58,0.00,,CLR,1.37,VWS V14.01,2013-06-23 22:45:00,
2013-06-23 17:50:00,80.2,65.1,29.73,West,271,7.0,14.7,60,0.00,,CLR,1.37,VWS V14.01,2013-06-23 22:50:00,
2013-06-23 17:55:00,80.2,63.6,29.73,WSW,257,7.0,12.6,57,0.00,,CLR,1.37,VWS V14.01,2013-06-23 22:55:00,
2013-06-23 18:05:00,80.1,65.0,29.74,WNW,292,5.0,15.7,60,0.00,,CLR,1.37,VWS V14.01,2013-06-23 23:05:00,
2013-06-23 18:10:00,80.0,63.4,29.74,SW,225,9.0,14.7,57,0.00,,CLR,1.37,VWS V14.01,2013-06-23 23:10:00,
2013-06-23 18:20:00,80.0,62.9,29.74,West,271,2.0,9.4,56,0.00,,CLR,1.37,VWS V14.01,2013-06-23 23:20:00,
2013-06-23 18:25:00,80.0,63.4,29.74,SW,232,11.0,12.6,57,0.00,,CLR,1.37,VWS V14.01,2013-06-23 23:25:00,
2013-06-23 18:30:00,79.9,64.8,29.74,West,267,7.0,11.5,60,0.00,,CLR,1.37,VWS V14.01,2013-06-23 23:30:00,
2013-06-23 18:40:00,79.6,64.5,29.74,WSW,252,8.0,14.7,60,0.00,,CLR,1.37,VWS V14.01,2013-06-23 23:40:00,
2013-06-23 18:45:00,79.5,64.9,29.74,WNW,287,8.0,12.6,61,0.00,,CLR,1.37,VWS V14.01,2013-06-23 23:45:00,
2013-06-23 18:50:00,79.6,65.0,29.74,SW,219,4.0,9.4,61,0.00,,CLR,1.37,VWS V14.01,2013-06-23 23:50:00,
2013-06-23 18:55:00,79.7,65.5,29.75,SW,215,5.0,13.6,62,0.00,,CLR,1.37,VWS V14.01,2013-06-23 23:55:00,
2013-06-23 19:00:00,79.4,64.8,29.75,West,274,4.0,13.6,61,0.00,,CLR,1.37,VWS V14.01,2013-06-24 00:00:00,
2013-06-23 19:10:00,78.9,64.8,29.75,SW,227,12.0,14.7,62,0.00,,CLR,1.37,VWS V14.01,2013-06-24 00:10:00,
2013-06-23 19:15:00,78.8,64.7,29.75,SW,232,8.0,16.8,62,0.00,,CLR,1.37,VWS V14.01,2013-06-24 00:15:00,
2013-06-23 19:25:00,79.1,63.1,29.76,WSW,246,3.0,12.6,58,0.00,,CLR,1.37,VWS V14.01,2013-06-24 00:25:00,
2013-06-23 19:30:00,79.1,63.6,29.76,West,259,6.0,10.5,59,0.00,,CLR,1.37,VWS V14.01,2013-06-24 00:30:00,
2013-06-23 19:35:00,78.9,62.9,29.76,WNW,290,5.0,10.5,58,0.00,,CLR,1.37,VWS V14.01,2013-06-24 00:35:00,
2013-06-23 19:40:00,78.7,63.7,29.76,West,270,4.0,8.4,60,0.00,,CLR,1.37,VWS V14.01,2013-06-24 00:40:00,
2013-06-23 19:45:00,78.6,63.6,29.76,West,267,0.0,5.2,60,0.00,,CLR,1.37,VWS V14.01,2013-06-24 00:45:00,
2013-06-23 19:50:00,78.5,64.0,29.76,WNW,290,1.0,7.3,61,0.00,,CLR,1.37,VWS V14.01,2013-06-24 00:50:00,
2013-06-23 19:55:00,78.4,64.8,29.76,SW,233,1.0,6.3,63,0.00,,CLR,1.37,VWS V14.01,2013-06-24 00:55:00,
2013-06-23 20:00:00,78.2,64.6,29.76,SW,229,0.0,8.4,63,0.00,,CLR,1.37,VWS V14.01,2013-06-24 01:00:00,
2013-06-23 20:05:00,77.9,64.8,29.77,SW,234,2.0,5.2,64,0.00,,CLR,1.37,VWS V14.01,2013-06-24 01:05:00,
2013-06-23 20:10:00,77.5,64.8,29.77,WSW,250,0.0,4.2,65,0.00,,CLR,1.37,VWS V14.01,2013-06-24 01:10:00,
2013-06-23 20:20:00,76.5,64.7,29.77,West,264,2.0,4.2,67,0.00,,CLR,1.37,VWS V14.01,2013-06-24 01:20:00,
2013-06-23 20:30:00,76.2,65.3,29.77,WNW,301,0.0,4.2,69,0.00,,CLR,1.37,VWS V14.01,2013-06-24 01:30:00,
2013-06-23 20:35:00,75.8,65.3,29.77,West,270,0.0,2.1,70,0.00,,CLR,1.37,VWS V14.01,2013-06-24 01:35:00,
2013-06-23 20:40:00,75.5,65.8,29.77,West,270,0.0,0.0,72,0.00,,CLR,1.37,VWS V14.01,2013-06-24 01:40:00,
2013-06-23 20:45:00,75.2,66.0,29.77,West,270,0.0,0.0,73,0.00,,CLR,1.37,VWS V14.01,2013-06-24 01:45:00,
2013-06-23 20:50:00,74.7,65.9,29.77,West,270,0.0,0.0,74,0.00,,CLR,1.37,VWS V14.01,2013-06-24 01:50:00,
2013-06-23 21:00:00,73.9,65.1,29.77,West,265,0.0,0.0,74,0.00,,CLR,1.37,VWS V14.01,2013-06-24 02:00:00,
2013-06-23 21:10:00,73.2,64.4,29.77,WSW,255,0.0,0.0,74,0.00,,CLR,1.37,VWS V14.01,2013-06-24 02:10:00,
2013-06-23 21:15:00,72.9,64.5,29.76,WSW,256,0.0,0.0,75,0.00,,CLR,1.37,VWS V14.01,2013-06-24 02:15:00,
2013-06-23 21:20:00,72.6,64.6,29.77,WSW,256,0.0,0.0,76,0.00,,CLR,1.37,VWS V14.01,2013-06-24 02:20:00,
2013-06-23 21:25:00,72.2,64.6,29.77,WSW,256,0.0,0.0,77,0.00,,CLR,1.37,VWS V14.01,2013-06-24 02:25:00,
2013-06-23 21:30:00,71.9,64.7,29.77,WSW,256,0.0,0.0,78,0.00,,CLR,1.37,VWS V14.01,2013-06-24 02:30:00,
2013-06-23 21:40:00,71.1,64.3,29.77,WSW,256,0.0,0.0,79,0.00,,CLR,1.37,VWS V14.01,2013-06-24 02:40:00,
2013-06-23 21:45:00,70.8,64.7,29.77,WSW,248,0.0,0.0,81,0.00,,CLR,1.37,VWS V14.01,2013-06-24 02:45:00,
2013-06-23 21:55:00,69.9,64.8,29.78,WSW,240,0.0,0.0,84,0.00,,CLR,1.37,VWS V14.01,2013-06-24 02:55:00,
2013-06-23 22:00:00,69.4,65.0,29.78,WSW,240,0.0,0.0,86,0.00,,CLR,1.37,VWS V14.01,2013-06-24 03:00:00,
2013-06-23 22:10:00,68.7,64.3,29.79,WSW,240,0.0,0.0,86,0.00,,CLR,1.37,VWS V14.01,2013-06-24 03:10:00,
2013-06-23 22:15:00,68.5,64.2,29.79,WSW,240,0.0,0.0,86,0.00,,CLR,1.37,VWS V14.01,2013-06-24 03:15:00,
2013-06-23 22:25:00,67.7,64.0,29.79,WSW,240,0.0,0.0,88,0.00,,CLR,1.37,VWS V14.01,2013-06-24 03:25:00,
2013-06-23 22:30:00,67.6,63.9,29.79,WSW,240,0.0,0.0,88,0.00,,CLR,1.37,VWS V14.01,2013-06-24 03:30:00,
2013-06-23 22:40:00,67.5,63.8,29.79,WSW,240,0.0,0.0,88,0.00,,CLR,1.37,VWS V14.01,2013-06-24 03:40:00,
2013-06-23 22:45:00,67.3,63.6,29.79,WSW,240,0.0,0.0,88,0.00,,CLR,1.37,VWS V14.01,2013-06-24 03:45:00,
2013-06-23 22:50:00,67.0,63.3,29.79,WSW,240,0.0,0.0,88,0.00,,CLR,1.37,VWS V14.01,2013-06-24 03:50:00,
2013-06-23 22:55:00,67.0,63.7,29.80,WSW,240,0.0,0.0,89,0.00,,CLR,1.37,VWS V14.01,2013-06-24 03:55:00,
2013-06-23 23:00:00,67.0,63.3,29.80,WSW,240,0.0,0.0,88,0.00,,CLR,1.37,VWS V14.01,2013-06-24 04:00:00,
2013-06-23 23:05:00,67.0,63.3,29.80,WSW,240,0.0,0.0,88,0.00,,CLR,1.37,VWS V14.01,2013-06-24 04:05:00,
2013-06-23 23:10:00,67.2,63.5,29.80,WSW,240,0.0,0.0,88,0.00,,CLR,1.37,VWS V14.01,2013-06-24 04:10:00,
2013-06-23 23:15:00,67.2,63.2,29.80,WSW,240,0.0,0.0,87,0.00,,CLR,1.37,VWS V14.01,2013-06-24 04:15:00,
2013-06-23 23:20:00,67.1,63.1,29.80,WSW,240,0.0,0.0,87,0.00,,CLR,1.37,VWS V14.01,2013-06-24 04:20:00,
2013-06-23 23:25:00,66.7,62.7,29.80,WSW,240,0.0,0.0,87,0.00,,CLR,1.37,VWS V14.01,2013-06-24 04:25:00,
2013-06-23 23:30:00,66.3,62.6,29.80,WSW,240,0.0,0.0,88,0.00,,CLR,1.37,VWS V14.01,2013-06-24 04:30:00,
2013-06-23 23:35:00,66.2,62.9,29.80,WSW,240,0.0,0.0,89,0.00,,CLR,1.37,VWS V14.01,2013-06-24 04:35:00,
2013-06-23 23:40:00,66.2,62.5,29.80,WSW,240,0.0,0.0,88,0.00,,CLR,1.37,VWS V14.01,2013-06-24 04:40:00,
2013-06-23 23:50:00,66.3,62.6,29.81,WSW,240,0.0,0.0,88,0.00,,CLR,1.37,VWS V14.01,2013-06-24 04:50:00,
2013-06-23 23:55:00,66.1,62.8,29.81,WSW,240,0.0,0.0,89,0.00,,CLR,1.37,VWS V14.01,2013-06-24 04:55:00,